createdAt,value
2018-04-02T00:00:12.786Z,9.82
2018-04-02T00:02:41.168Z,10.30
2018-04-02T00:05:09.452Z,9.53
2018-04-02T00:07:37.836Z,10.20
2018-04-02T00:10:06.097Z,9.97
2018-04-02T00:12:34.900Z,10.70
2018-04-02T00:15:03.169Z,12.27
2018-04-02T00:17:31.539Z,12.23
2018-04-02T00:20:00.887Z,13.62
2018-04-02T00:22:29.153Z,13.23
2018-04-02T00:24:57.513Z,12.20
2018-04-02T00:27:25.812Z,12.10
2018-04-02T00:29:54.163Z,10.23
2018-04-02T00:32:22.840Z,10.63
2018-04-02T00:34:51.152Z,10.75
2018-04-02T00:37:19.442Z,9.60
2018-04-02T00:39:47.776Z,10.00
2018-04-02T00:42:16.911Z,9.83
2018-04-02T00:44:45.230Z,10.43
2018-04-02T00:47:13.518Z,9.50
2018-04-02T00:49:41.827Z,9.10
2018-04-02T00:52:10.131Z,9.40
2018-04-02T00:54:38.410Z,9.23
2018-04-02T00:57:06.683Z,9.33
2018-04-02T00:59:34.980Z,9.50
2018-04-02T01:02:03.257Z,9.57
2018-04-02T01:04:31.560Z,9.50
2018-04-02T01:06:59.864Z,9.63
2018-04-02T01:09:28.159Z,9.23
2018-04-02T01:11:56.471Z,9.30
2018-04-02T01:14:24.775Z,9.10
2018-04-02T01:16:53.037Z,8.80
2018-04-02T01:19:21.331Z,9.00
2018-04-02T01:21:49.675Z,10.10
2018-04-02T01:24:17.960Z,9.10
2018-04-02T01:26:46.269Z,10.20
2018-04-02T01:29:14.568Z,10.40
2018-04-02T01:31:42.878Z,9.73
2018-04-02T01:34:11.168Z,10.43
2018-04-02T01:36:39.493Z,10.10
2018-04-02T01:39:07.751Z,9.45
2018-04-02T01:41:36.175Z,9.70
2018-04-02T01:44:05.227Z,10.17
2018-04-02T01:46:33.608Z,10.07
2018-04-02T01:49:01.915Z,10.65
2018-04-02T01:51:30.229Z,9.90
2018-04-02T01:53:58.558Z,10.50
2018-04-02T01:56:26.858Z,10.15
2018-04-02T01:58:55.238Z,10.33
2018-04-02T02:01:23.513Z,9.80
2018-04-02T02:03:51.786Z,9.50
2018-04-02T02:06:20.556Z,10.07
2018-04-02T02:08:48.851Z,15.20
2018-04-02T02:11:17.696Z,10.20
2018-04-02T02:13:46.000Z,9.50
2018-04-02T02:16:15.324Z,9.40
2018-04-02T02:18:43.726Z,10.70
2018-04-02T02:21:11.996Z,10.33
2018-04-02T02:23:40.337Z,10.90
2018-04-02T02:26:08.620Z,10.43
2018-04-02T02:28:37.001Z,10.48
2018-04-02T02:31:05.300Z,10.33
2018-04-02T02:33:33.629Z,10.67
2018-04-02T02:36:01.917Z,10.43
2018-04-02T02:38:30.225Z,10.33
2018-04-02T02:40:58.556Z,10.70
2018-04-02T02:43:26.861Z,12.43
2018-04-02T02:45:55.136Z,10.67
2018-04-02T02:48:23.808Z,10.85
2018-04-02T02:50:52.113Z,10.03
2018-04-02T02:53:20.440Z,10.52
2018-04-02T02:55:48.715Z,10.50
2018-04-02T02:58:17.029Z,10.83
2018-04-02T03:00:45.302Z,10.23
2018-04-02T03:03:13.590Z,9.45
2018-04-02T03:05:41.933Z,10.57
2018-04-02T03:08:10.235Z,10.40
2018-04-02T03:10:38.527Z,9.90
2018-04-02T03:13:06.859Z,10.00
2018-04-02T03:15:35.171Z,9.10
2018-04-02T03:18:03.448Z,9.63
2018-04-02T03:20:31.746Z,9.70
2018-04-02T03:23:00.029Z,10.63
2018-04-02T03:25:29.104Z,9.63
2018-04-02T03:27:57.375Z,11.60
2018-04-02T03:30:25.719Z,10.73
2018-04-02T03:32:54.020Z,10.10
2018-04-02T03:35:22.302Z,10.10
2018-04-02T03:37:50.615Z,10.70
2018-04-02T03:40:18.985Z,10.73
2018-04-02T03:42:47.294Z,11.97
2018-04-02T03:45:15.606Z,9.68
2018-04-02T03:47:44.000Z,9.20
2018-04-02T03:50:12.300Z,10.30
2018-04-02T03:52:40.600Z,10.13
2018-04-02T03:55:08.908Z,9.60
2018-04-02T03:57:37.233Z,9.95
2018-04-02T04:00:05.537Z,9.77
2018-04-02T04:02:33.830Z,9.80
2018-04-02T04:05:02.136Z,8.77
2018-04-02T04:07:30.455Z,7.90
2018-04-02T04:09:58.765Z,9.10
2018-04-02T04:12:27.093Z,8.80
2018-04-02T04:14:55.399Z,9.63
2018-04-02T04:17:23.762Z,8.93
2018-04-02T04:19:52.080Z,8.90
2018-04-02T04:22:20.384Z,9.13
2018-04-02T04:24:48.726Z,7.40
2018-04-02T04:27:17.016Z,8.27
2018-04-02T04:29:45.296Z,8.10
2018-04-02T04:32:13.649Z,8.35
2018-04-02T04:34:41.917Z,9.13
2018-04-02T04:37:10.257Z,9.25
2018-04-02T04:39:38.491Z,8.63
2018-04-02T04:42:06.810Z,8.47
2018-04-02T04:44:35.103Z,8.20
2018-04-02T04:47:03.416Z,8.00
2018-04-02T04:49:31.704Z,8.50
2018-04-02T04:51:59.980Z,9.03
2018-04-02T04:54:28.256Z,8.50
2018-04-02T04:56:56.564Z,8.67
2018-04-02T04:59:24.952Z,8.40
2018-04-02T05:01:53.225Z,8.60
2018-04-02T05:04:21.546Z,8.50
2018-04-02T05:06:49.880Z,9.23
2018-04-02T05:09:18.211Z,8.55
2018-04-02T05:11:46.512Z,7.90
2018-04-02T05:14:14.807Z,9.47
2018-04-02T05:16:43.100Z,7.97
2018-04-02T05:19:11.414Z,8.67
2018-04-02T05:21:42.684Z,8.10
2018-04-02T05:24:10.976Z,7.80
2018-04-02T05:26:39.311Z,8.10
2018-04-02T05:29:07.616Z,8.57
2018-04-02T05:31:35.904Z,9.13
2018-04-02T05:34:04.232Z,7.87
2018-04-02T05:36:32.527Z,8.00
2018-04-02T05:39:00.809Z,8.33
2018-04-02T05:41:29.097Z,8.40
2018-04-02T05:43:57.455Z,7.47
2018-04-02T05:46:25.680Z,7.70
2018-04-02T05:48:53.988Z,8.20
2018-04-02T05:51:22.266Z,7.87
2018-04-02T05:53:50.592Z,8.20
2018-04-02T05:56:18.883Z,7.95
2018-04-02T05:58:47.195Z,9.00
2018-04-02T06:01:15.593Z,8.50
2018-04-02T06:03:43.873Z,8.13
2018-04-02T06:06:12.152Z,7.93
2018-04-02T06:08:40.432Z,7.70
2018-04-02T06:11:08.779Z,8.60
2018-04-02T06:13:37.414Z,7.50
2018-04-02T06:16:05.699Z,8.53
2018-04-02T06:18:34.219Z,7.70
2018-04-02T06:21:02.527Z,7.20
2018-04-02T06:23:30.868Z,8.85
2018-04-02T06:25:59.694Z,7.87
2018-04-02T06:28:27.964Z,8.33
2018-04-02T06:30:56.244Z,8.60
2018-04-02T06:33:24.525Z,7.90
2018-04-02T06:35:52.832Z,8.60
2018-04-02T06:38:21.146Z,8.40
2018-04-02T06:40:49.428Z,7.85
2018-04-02T06:43:17.733Z,8.27
2018-04-02T06:45:46.019Z,8.23
2018-04-02T06:48:14.329Z,9.75
2018-04-02T06:50:43.373Z,8.10
2018-04-02T06:53:11.760Z,7.40
2018-04-02T06:55:40.045Z,8.30
2018-04-02T06:58:08.352Z,7.97
2018-04-02T07:00:36.624Z,8.40
2018-04-02T07:03:05.060Z,8.20
2018-04-02T07:05:33.379Z,8.20
2018-04-02T07:08:01.727Z,8.30
2018-04-02T07:10:30.008Z,8.90
2018-04-02T07:12:58.411Z,8.90
2018-04-02T07:15:26.717Z,8.40
2018-04-02T07:17:55.838Z,8.37
2018-04-02T07:20:24.156Z,8.57
2018-04-02T07:22:52.459Z,8.20
2018-04-02T07:25:20.775Z,8.60
2018-04-02T07:27:49.119Z,7.67
2018-04-02T07:30:17.398Z,8.37
2018-04-02T07:32:45.742Z,8.80
2018-04-02T07:35:14.033Z,8.37
2018-04-02T07:37:42.375Z,8.80
2018-04-02T07:40:10.660Z,9.20
2018-04-02T07:42:39.665Z,8.73
2018-04-02T07:45:07.977Z,9.00
2018-04-02T07:47:36.239Z,9.60
2018-04-02T07:50:05.396Z,8.70
2018-04-02T07:52:34.958Z,9.10
2018-04-02T07:55:04.236Z,9.23
2018-04-02T07:57:32.515Z,9.00
2018-04-02T08:00:00.894Z,9.73
2018-04-02T08:02:29.151Z,9.40
2018-04-02T08:04:57.457Z,9.30
2018-04-02T08:07:25.822Z,9.75
2018-04-02T08:09:54.110Z,9.80
2018-04-02T08:12:22.380Z,8.57
2018-04-02T08:14:50.707Z,8.57
2018-04-02T08:17:19.005Z,8.32
2018-04-02T08:19:47.313Z,7.20
2018-04-02T08:22:15.579Z,6.87
2018-04-02T08:24:44.268Z,4.80
2018-04-02T08:27:12.564Z,4.53
2018-04-02T08:29:40.842Z,4.90
2018-04-02T08:32:10.307Z,4.68
2018-04-02T08:34:38.594Z,4.10
2018-04-02T08:37:06.895Z,3.27
2018-04-02T08:39:35.252Z,2.80
2018-04-02T08:42:03.633Z,2.67
2018-04-02T08:44:31.910Z,2.37
2018-04-02T08:47:00.214Z,2.60
2018-04-02T08:49:28.476Z,2.50
2018-04-02T08:51:56.775Z,2.30
2018-04-02T08:54:25.111Z,2.50
2018-04-02T08:56:53.412Z,2.10
2018-04-02T08:59:21.690Z,2.45
2018-04-02T09:01:49.987Z,1.80
2018-04-02T09:04:18.274Z,2.30
2018-04-02T09:06:46.604Z,2.07
2018-04-02T09:09:14.881Z,1.90
2018-04-02T09:11:43.204Z,2.10
2018-04-02T09:14:11.509Z,2.10
2018-04-02T09:16:39.803Z,1.90
2018-04-02T09:19:08.085Z,2.20
2018-04-02T09:21:36.376Z,1.90
2018-04-02T09:24:05.767Z,2.40
2018-04-02T09:26:34.976Z,1.70
2018-04-02T09:29:03.355Z,2.00
2018-04-02T09:31:31.616Z,2.43
2018-04-02T09:34:00.016Z,1.80
2018-04-02T09:36:29.177Z,1.90
2018-04-02T09:38:57.664Z,1.43
2018-04-02T09:41:25.936Z,1.90
2018-04-02T09:43:54.247Z,1.83
2018-04-02T09:46:22.523Z,1.92
2018-04-02T09:48:50.861Z,1.70
2018-04-02T09:51:19.261Z,1.90
2018-04-02T09:53:47.584Z,1.87
2018-04-02T09:56:16.124Z,1.63
2018-04-02T09:58:44.752Z,1.87
2018-04-02T10:01:13.101Z,1.52
2018-04-02T10:03:47.429Z,1.83
2018-04-02T10:06:15.692Z,1.80
2018-04-02T10:08:44.084Z,1.67
2018-04-02T10:11:12.422Z,1.70
2018-04-02T10:13:40.707Z,1.93
2018-04-02T10:16:09.016Z,2.13
2018-04-02T10:18:37.358Z,1.40
2018-04-02T10:21:05.622Z,2.23
2018-04-02T10:23:33.907Z,1.80
2018-04-02T10:26:02.198Z,1.80
2018-04-02T10:28:30.510Z,1.33
2018-04-02T10:30:58.805Z,1.50
2018-04-02T10:33:27.096Z,1.67
2018-04-02T10:35:55.386Z,1.77
2018-04-02T10:38:23.929Z,1.62
2018-04-02T10:40:53.212Z,1.50
2018-04-02T10:43:22.492Z,1.57
2018-04-02T10:45:50.765Z,1.67
2018-04-02T10:48:20.044Z,2.08
2018-04-02T10:50:48.303Z,1.70
2018-04-02T10:53:16.626Z,1.80
2018-04-02T10:55:44.932Z,1.77
2018-04-02T10:58:13.916Z,1.90
2018-04-02T11:00:42.237Z,1.62
2018-04-02T11:03:10.578Z,1.80
2018-04-02T11:05:38.884Z,1.87
2018-04-02T11:08:07.146Z,1.67
2018-04-02T11:10:35.423Z,1.80
2018-04-02T11:13:03.720Z,1.87
2018-04-02T11:15:32.032Z,1.70
2018-04-02T11:18:01.422Z,1.70
2018-04-02T11:20:29.660Z,1.97
2018-04-02T11:22:58.079Z,1.80
2018-04-02T11:25:26.429Z,1.90
2018-04-02T11:27:54.743Z,1.63
2018-04-02T11:30:23.050Z,1.50
2018-04-02T11:32:52.170Z,1.60
2018-04-02T11:35:20.452Z,1.55
2018-04-02T11:37:48.922Z,1.57
2018-04-02T11:40:17.237Z,1.00
2018-04-02T11:42:45.675Z,1.20
2018-04-02T11:47:48.782Z,1.70
2018-04-02T11:50:17.080Z,1.55
2018-04-02T11:52:45.383Z,1.57
2018-04-02T11:55:13.683Z,1.50
2018-04-02T11:57:41.969Z,1.50
2018-04-02T12:00:10.282Z,1.57
2018-04-02T12:02:38.617Z,1.25
2018-04-02T12:05:06.936Z,1.47
2018-04-02T12:07:35.220Z,1.60
2018-04-02T12:10:04.508Z,1.33
2018-04-02T12:12:32.790Z,1.70
2018-04-02T12:15:01.429Z,1.40
2018-04-02T12:17:29.699Z,1.40
2018-04-02T12:19:58.033Z,1.20
2018-04-02T12:22:27.011Z,1.03
2018-04-02T12:24:55.298Z,1.60
2018-04-02T12:27:23.764Z,1.30
2018-04-02T12:29:52.053Z,1.50
2018-04-02T12:32:20.376Z,1.80
2018-04-02T12:34:48.675Z,1.60
2018-04-02T12:37:16.988Z,1.37
2018-04-02T12:39:45.259Z,1.20
2018-04-02T12:42:13.533Z,1.93
2018-04-02T12:44:41.868Z,1.17
2018-04-02T12:47:10.144Z,1.20
2018-04-02T12:49:38.508Z,1.20
2018-04-02T12:52:06.748Z,1.30
2018-04-02T12:54:35.134Z,1.10
2018-04-02T12:57:03.401Z,1.43
2018-04-02T12:59:31.776Z,1.40
2018-04-02T13:02:00.028Z,1.23
2018-04-02T13:04:28.712Z,1.30
2018-04-02T13:06:56.961Z,1.13
2018-04-02T13:09:25.376Z,1.30
2018-04-02T13:11:53.688Z,1.30
2018-04-02T13:14:22.023Z,1.20
2018-04-02T13:16:50.304Z,1.60
2018-04-02T13:19:18.719Z,1.35
2018-04-02T13:21:47.228Z,1.47
2018-04-02T13:24:15.482Z,1.50
2018-04-02T13:26:43.802Z,1.47
2018-04-02T13:29:12.060Z,1.40
2018-04-02T13:31:40.376Z,1.40
2018-04-02T13:34:08.660Z,1.40
2018-04-02T13:36:36.960Z,1.63
2018-04-02T13:39:06.499Z,1.40
2018-04-02T13:41:34.870Z,1.43
2018-04-02T13:44:03.141Z,1.20
2018-04-02T13:46:31.450Z,1.10
2018-04-02T13:48:59.740Z,1.23
2018-04-02T13:51:28.081Z,1.33
2018-04-02T13:53:56.357Z,1.33
2018-04-02T13:56:24.758Z,1.40
2018-04-02T13:58:53.020Z,1.30
2018-04-02T14:01:21.439Z,1.40
2018-04-02T14:03:49.764Z,1.17
2018-04-02T14:06:18.346Z,1.45
2018-04-02T14:08:46.630Z,1.30
2018-04-02T14:11:14.990Z,1.30
2018-04-02T14:13:43.348Z,1.03
2018-04-02T14:16:11.677Z,1.27
2018-04-02T14:18:39.968Z,1.20
2018-04-02T14:21:08.256Z,1.40
2018-04-02T14:23:36.616Z,4.60
2018-04-02T14:26:04.934Z,1.10
2018-04-02T14:28:33.251Z,1.00
2018-04-02T14:31:01.576Z,1.47
2018-04-02T14:33:29.922Z,1.30
2018-04-02T14:35:58.197Z,1.30
2018-04-02T14:38:26.491Z,7.10
2018-04-02T14:40:56.063Z,1.10
2018-04-02T14:43:24.352Z,0.97
2018-04-02T14:45:53.555Z,1.07
2018-04-02T14:48:21.833Z,1.37
2018-04-02T14:50:50.135Z,1.10
2018-04-02T14:53:18.495Z,1.23
2018-04-02T14:55:46.818Z,1.40
2018-04-02T14:58:15.203Z,1.17
2018-04-02T15:00:43.515Z,1.30
2018-04-02T15:03:11.818Z,2.22
2018-04-02T15:05:40.098Z,2.43
2018-04-02T15:08:08.392Z,1.40
2018-04-02T15:10:37.545Z,1.30
2018-04-02T15:13:06.608Z,1.40
2018-04-02T15:15:34.931Z,1.30
2018-04-02T15:18:04.055Z,1.48
2018-04-02T15:20:32.469Z,1.40
2018-04-02T15:23:01.661Z,1.40
2018-04-02T15:25:30.028Z,1.50
2018-04-02T15:27:58.277Z,1.70
2018-04-02T15:30:27.671Z,1.40
2018-04-02T15:32:56.431Z,1.80
2018-04-02T15:35:24.684Z,1.43
2018-04-02T15:37:52.985Z,1.33
2018-04-02T15:40:21.262Z,1.10
2018-04-02T15:42:49.529Z,1.50
2018-04-02T15:45:17.800Z,1.40
2018-04-02T15:47:46.075Z,1.50
2018-04-02T15:50:14.348Z,1.20
2018-04-02T15:52:42.600Z,1.40
2018-04-02T15:55:10.904Z,1.30
2018-04-02T15:57:39.203Z,1.40
2018-04-02T16:00:07.470Z,1.20
2018-04-02T16:02:35.748Z,1.30
2018-04-02T16:05:04.236Z,1.27
2018-04-02T16:07:32.529Z,1.20
2018-04-02T16:10:00.818Z,1.20
2018-04-02T16:12:30.170Z,1.10
2018-04-02T16:14:58.516Z,1.10
2018-04-02T16:17:26.828Z,1.03
2018-04-02T16:19:55.102Z,1.10
2018-04-02T16:22:23.389Z,1.17
2018-04-02T16:24:51.669Z,0.90
2018-04-02T16:27:19.960Z,1.17
2018-04-02T16:29:48.249Z,1.40
2018-04-02T16:32:16.527Z,1.00
2018-04-02T16:34:44.780Z,1.30
2018-04-02T16:37:13.212Z,1.00
2018-04-02T16:39:41.471Z,1.10
2018-04-02T16:42:09.753Z,1.30
2018-04-02T16:44:38.021Z,1.17
2018-04-02T16:47:06.287Z,1.00
2018-04-02T16:49:34.587Z,1.10
2018-04-02T16:52:02.855Z,1.20
2018-04-02T16:54:31.210Z,1.50
2018-04-02T16:56:59.660Z,1.40
2018-04-02T16:59:27.954Z,1.00
2018-04-02T17:01:56.202Z,1.47
2018-04-02T17:04:24.548Z,1.30
2018-04-02T17:06:52.804Z,1.40
2018-04-02T17:09:21.092Z,1.10
2018-04-02T17:11:49.393Z,0.90
2018-04-02T17:14:17.675Z,1.10
2018-04-02T17:16:45.936Z,1.23
2018-04-02T17:19:14.221Z,1.33
2018-04-02T17:21:42.538Z,1.50
2018-04-02T17:24:10.858Z,2.53
2018-04-02T17:26:39.105Z,1.90
2018-04-02T17:29:07.399Z,1.90
2018-04-02T17:31:35.677Z,1.60
2018-04-02T17:34:03.937Z,1.60
2018-04-02T17:36:32.219Z,2.20
2018-04-02T17:39:00.514Z,1.97
2018-04-02T17:41:28.823Z,1.70
2018-04-02T17:43:57.062Z,1.40
2018-04-02T17:46:25.412Z,1.47
2018-04-02T17:48:53.711Z,1.90
2018-04-02T17:51:22.012Z,2.70
2018-04-02T17:53:50.273Z,2.33
2018-04-02T17:58:53.229Z,1.90
2018-04-02T18:01:21.555Z,1.80
2018-04-02T18:03:49.799Z,2.43
2018-04-02T18:06:18.086Z,1.63
2018-04-02T18:08:46.346Z,1.97
2018-04-02T18:11:14.654Z,2.20
2018-04-02T18:13:42.920Z,2.70
2018-04-02T18:16:11.412Z,2.30
2018-04-02T18:18:39.681Z,2.90
2018-04-02T18:21:07.990Z,2.70
2018-04-02T18:23:36.285Z,2.50
2018-04-02T18:26:04.589Z,2.20
2018-04-02T18:28:32.894Z,2.60
2018-04-02T18:31:02.396Z,2.23
2018-04-02T18:33:30.672Z,2.37
2018-04-02T18:35:59.083Z,2.20
2018-04-02T18:38:27.235Z,2.20
2018-04-02T18:40:55.488Z,2.47
2018-04-02T18:43:23.789Z,2.50
2018-04-02T18:45:52.368Z,2.90
2018-04-02T18:48:20.862Z,2.77
2018-04-02T18:50:49.143Z,2.20
2018-04-02T18:53:19.067Z,2.30
2018-04-02T18:55:47.379Z,1.63
2018-04-02T18:58:15.697Z,1.90
2018-04-02T19:00:43.924Z,1.63
2018-04-02T19:03:12.223Z,1.90
2018-04-02T19:05:40.480Z,2.83
2018-04-02T19:08:08.741Z,2.40
2018-04-02T19:10:37.041Z,3.60
2018-04-02T19:13:05.300Z,2.77
2018-04-02T19:15:34.735Z,2.90
2018-04-02T19:18:03.005Z,3.23
2018-04-02T19:20:31.343Z,3.23
2018-04-02T19:22:59.598Z,3.20
2018-04-02T19:25:27.929Z,3.40
2018-04-02T19:27:56.180Z,3.60
2018-04-02T19:30:24.495Z,2.83
2018-04-02T19:32:52.732Z,3.00
2018-04-02T19:35:21.009Z,3.40
2018-04-02T19:37:49.267Z,4.40
2018-04-02T19:40:17.600Z,4.47
2018-04-02T19:42:45.880Z,3.87
2018-04-02T19:45:14.164Z,4.33
2018-04-02T19:47:42.430Z,4.90
2018-04-02T19:50:10.773Z,4.80
2018-04-02T19:52:39.049Z,5.10
2018-04-02T19:55:07.343Z,4.93
2018-04-02T19:57:35.640Z,5.20
2018-04-02T20:00:03.989Z,5.40
2018-04-02T20:02:32.280Z,4.70
2018-04-02T20:05:00.582Z,4.73
2018-04-02T20:07:28.880Z,5.10
2018-04-02T20:09:57.153Z,4.73
2018-04-02T20:12:25.424Z,5.97
2018-04-02T20:14:53.700Z,6.20
2018-04-02T20:17:21.997Z,5.10
2018-04-02T20:19:50.285Z,5.00
2018-04-02T20:22:18.580Z,4.50
2018-04-02T20:24:46.830Z,4.30
2018-04-02T20:27:15.136Z,3.67
2018-04-02T20:29:43.422Z,11.40
2018-04-02T20:32:11.717Z,4.60
2018-04-02T20:34:40.001Z,3.90
2018-04-02T20:37:08.284Z,4.17
2018-04-02T20:39:36.553Z,4.43
2018-04-02T20:42:04.865Z,3.83
2018-04-02T20:44:33.132Z,3.80
2018-04-02T20:47:01.453Z,3.97
2018-04-02T20:49:29.706Z,3.63
2018-04-02T20:51:58.007Z,3.93
2018-04-02T20:54:26.266Z,2.30
2018-04-02T20:56:54.594Z,1.80
2018-04-02T20:59:22.890Z,1.63
2018-04-02T21:01:51.135Z,1.77
2018-04-02T21:04:19.461Z,1.57
2018-04-02T21:06:47.732Z,1.40
2018-04-02T21:09:16.964Z,1.80
2018-04-02T21:11:45.431Z,2.07
2018-04-02T21:14:13.904Z,1.70
2018-04-02T21:16:42.132Z,1.73
2018-04-02T21:19:10.404Z,1.47
2018-04-02T21:21:38.681Z,1.60
2018-04-02T21:24:06.982Z,1.60
2018-04-02T21:26:35.241Z,1.70
2018-04-02T21:29:04.205Z,1.60
2018-04-02T21:31:32.516Z,1.70
2018-04-02T21:34:00.832Z,1.60
2018-04-02T21:36:29.129Z,1.80
2018-04-02T21:38:57.532Z,1.50
2018-04-02T21:41:27.755Z,1.73
2018-04-02T21:43:56.078Z,1.90
2018-04-02T21:46:24.422Z,1.70
2018-04-02T21:48:52.784Z,1.80
2018-04-02T21:51:21.076Z,1.37
2018-04-02T21:53:49.487Z,1.77
2018-04-02T21:56:17.801Z,2.25
2018-04-02T21:58:46.123Z,1.67
2018-04-02T22:01:15.848Z,1.33
2018-04-02T22:03:44.171Z,1.50
2018-04-02T22:06:24.187Z,1.67
2018-04-02T22:08:55.484Z,1.60
2018-04-02T22:11:23.955Z,1.83
2018-04-02T22:13:52.229Z,1.90
2018-04-02T22:16:20.545Z,1.80
2018-04-02T22:18:48.874Z,2.00
2018-04-02T22:21:17.195Z,2.15
2018-04-02T22:23:45.486Z,1.70
2018-04-02T22:26:13.874Z,1.67
2018-04-02T22:28:42.130Z,1.60
2018-04-02T22:31:10.424Z,1.50
2018-04-02T22:33:38.722Z,1.67
2018-04-02T22:36:07.054Z,1.80
2018-04-02T22:38:37.912Z,1.50
2018-04-02T22:41:06.237Z,1.70
2018-04-02T22:43:36.308Z,1.50
2018-04-02T22:46:05.306Z,1.50
2018-04-02T22:48:33.565Z,1.90
2018-04-02T22:51:01.868Z,1.30
2018-04-02T22:53:30.132Z,1.40
2018-04-02T22:55:58.492Z,1.63
2018-04-02T22:58:26.807Z,1.60
2018-04-02T23:00:55.151Z,1.80
2018-04-02T23:03:23.425Z,1.50
2018-04-02T23:05:51.707Z,1.40
2018-04-02T23:08:20.040Z,1.90
2018-04-02T23:10:48.348Z,1.27
2018-04-02T23:13:16.679Z,1.70
2018-04-02T23:15:44.991Z,1.30
2018-04-02T23:18:13.298Z,1.87
2018-04-02T23:20:41.589Z,1.63
2018-04-02T23:23:09.859Z,1.47
2018-04-02T23:25:38.476Z,1.67
2018-04-02T23:28:06.811Z,1.53
2018-04-02T23:30:35.087Z,1.70
2018-04-02T23:33:03.406Z,1.87
2018-04-02T23:35:31.663Z,1.63
2018-04-02T23:37:59.998Z,1.57
2018-04-02T23:40:28.284Z,1.80
2018-04-02T23:42:56.946Z,1.73
2018-04-02T23:45:25.248Z,1.83
2018-04-02T23:47:53.545Z,1.60
2018-04-02T23:50:21.816Z,1.65
2018-04-02T23:52:50.110Z,1.70
2018-04-02T23:55:18.380Z,1.48
2018-04-02T23:57:46.667Z,1.80
